createdAt,value
2023-02-17T00:29:51.714Z,0
2023-02-17T00:30:32.212Z,0
2023-02-17T00:31:12.686Z,0
2023-02-17T00:35:56.298Z,0
2023-02-17T00:36:36.783Z,0
2023-02-17T00:37:17.337Z,0
2023-02-17T00:37:57.879Z,0
2023-02-17T00:38:38.391Z,0
2023-02-17T00:39:18.859Z,0
2023-02-17T00:39:59.391Z,0
2023-02-17T00:40:39.903Z,0
2023-02-17T00:41:20.390Z,0
2023-02-17T00:42:00.869Z,0
2023-02-17T00:50:06.724Z,0
2023-02-17T00:50:47.254Z,0
2023-02-17T00:51:27.755Z,0
2023-02-17T00:52:09.196Z,0
2023-02-17T00:52:49.675Z,0
2023-02-17T00:53:30.178Z,0
2023-02-17T00:54:10.716Z,0
2023-02-17T00:54:51.225Z,0
2023-02-17T01:00:56.433Z,0
2023-02-17T01:01:37.039Z,0
2023-02-17T01:02:17.453Z,0
2023-02-17T01:02:57.996Z,0
2023-02-17T01:03:38.464Z,0
2023-02-17T01:04:18.947Z,0
2023-02-17T01:04:59.481Z,0
2023-02-17T01:05:39.974Z,0
2023-02-17T01:06:20.500Z,0
2023-02-17T01:07:01.036Z,0
2023-02-17T01:14:26.584Z,0
2023-02-17T01:15:07.098Z,0
2023-02-17T01:15:47.561Z,0
2023-02-17T01:16:28.177Z,0
2023-02-17T01:17:08.581Z,0
2023-02-17T01:17:49.085Z,0
2023-02-17T01:18:29.558Z,0
2023-02-17T01:19:10.106Z,0
2023-02-17T01:19:50.556Z,0
2023-02-17T01:20:31.084Z,0
2023-02-17T01:27:56.709Z,0
2023-02-17T01:28:37.266Z,0
2023-02-17T01:29:17.746Z,0
2023-02-17T01:29:58.302Z,0
2023-02-17T01:30:38.816Z,0
2023-02-17T01:31:19.379Z,0
2023-02-17T01:31:59.870Z,0
2023-02-17T01:32:40.296Z,0
2023-02-17T01:33:20.849Z,0
2023-02-17T01:40:46.411Z,0
2023-02-17T01:41:26.826Z,0
2023-02-17T01:42:07.340Z,0
2023-02-17T01:42:47.895Z,0
2023-02-17T01:43:28.366Z,0
2023-02-17T01:44:08.851Z,0
2023-02-17T01:44:49.368Z,0
2023-02-17T01:45:29.874Z,0
2023-02-17T01:46:50.977Z,0
2023-02-17T01:54:16.362Z,0
2023-02-17T01:54:56.829Z,0
2023-02-17T01:55:37.336Z,0
2023-02-17T01:56:18.269Z,0
2023-02-17T01:56:58.770Z,0
2023-02-17T01:57:39.317Z,0
2023-02-17T01:58:19.806Z,0
2023-02-17T01:59:00.315Z,0
2023-02-17T01:59:40.852Z,0
2023-02-17T02:06:26.480Z,0
2023-02-17T02:10:05.621Z,0
2023-02-17T02:10:46.051Z,0
2023-02-17T02:11:26.589Z,0
2023-02-17T02:16:50.580Z,0
2023-02-17T02:17:31.091Z,0
2023-02-17T02:18:11.604Z,0
2023-02-17T02:18:52.093Z,0
2023-02-17T02:19:32.618Z,0
2023-02-17T02:20:13.112Z,0
2023-02-17T02:20:53.623Z,0
2023-02-17T02:21:34.102Z,0
2023-02-17T02:22:14.616Z,0
2023-02-17T02:22:55.088Z,0
2023-02-17T02:29:40.173Z,0
2023-02-17T02:30:20.750Z,0
2023-02-17T02:31:01.221Z,0
2023-02-17T02:31:41.745Z,0
2023-02-17T02:32:22.242Z,0
2023-02-17T02:33:02.732Z,0
2023-02-17T02:33:43.206Z,0
2023-02-17T02:34:23.679Z,0
2023-02-17T02:35:04.162Z,0
2023-02-17T02:35:44.662Z,0
2023-02-17T02:43:10.335Z,0
2023-02-17T02:43:50.891Z,0
2023-02-17T02:44:31.404Z,0
2023-02-17T02:45:11.901Z,0
2023-02-17T02:45:52.440Z,0
2023-02-17T02:46:32.905Z,0
2023-02-17T02:47:13.383Z,0
2023-02-17T02:47:53.892Z,0
2023-02-17T02:48:34.408Z,0
2023-02-17T02:49:14.948Z,0
2023-02-17T02:55:20.398Z,0
2023-02-17T02:56:00.948Z,0
2023-02-17T02:56:41.401Z,0
2023-02-17T02:57:21.909Z,0
2023-02-17T02:58:02.430Z,0
2023-02-17T02:58:42.912Z,0
2023-02-17T02:59:23.466Z,0
2023-02-17T03:00:03.989Z,0
2023-02-17T03:00:44.503Z,0
2023-02-17T03:01:25.136Z,0
2023-02-17T03:08:10.224Z,0
2023-02-17T03:08:50.716Z,0
2023-02-17T03:09:31.190Z,0
2023-02-17T03:10:11.661Z,0
2023-02-17T03:10:52.208Z,0
2023-02-17T03:11:32.677Z,0
2023-02-17T03:12:13.236Z,0
2023-02-17T03:12:53.673Z,0
2023-02-17T03:13:34.214Z,0
2023-02-17T03:14:15.494Z,0
2023-02-17T03:21:40.174Z,0
2023-02-17T03:22:20.687Z,0
2023-02-17T03:23:01.186Z,0
2023-02-17T03:23:41.725Z,0
2023-02-17T03:24:22.286Z,0
2023-02-17T03:25:02.846Z,0
2023-02-17T03:25:43.337Z,0
2023-02-17T03:26:23.826Z,0
2023-02-17T03:27:04.324Z,0
2023-02-17T03:27:44.838Z,0
2023-02-17T03:35:10.474Z,0
2023-02-17T03:35:50.976Z,0
2023-02-17T03:36:31.471Z,0
2023-02-17T03:37:12.013Z,0
2023-02-17T03:37:52.522Z,0
2023-02-17T03:38:33.029Z,0
2023-02-17T03:39:13.558Z,0
2023-02-17T03:39:54.004Z,0
2023-02-17T03:40:34.566Z,0
2023-02-17T03:41:15.008Z,0
2023-02-17T03:48:00.100Z,0
2023-02-17T03:48:40.640Z,0
2023-02-17T03:49:21.152Z,0
2023-02-17T03:50:01.666Z,0
2023-02-17T03:50:42.165Z,0
2023-02-17T03:51:22.672Z,0
2023-02-17T03:52:03.211Z,0
2023-02-17T03:52:43.652Z,0
2023-02-17T03:53:24.130Z,0
2023-02-17T03:54:04.713Z,0
2023-02-17T03:54:45.222Z,0
2023-02-17T04:02:10.553Z,0
2023-02-17T04:02:51.029Z,0
2023-02-17T04:04:12.097Z,0
2023-02-17T04:04:52.542Z,0
2023-02-17T04:05:33.070Z,0
2023-02-17T04:06:13.537Z,0
2023-02-17T04:06:54.101Z,0
2023-02-17T04:07:34.598Z,0
2023-02-17T04:08:15.063Z,0
2023-02-17T04:15:00.253Z,0
2023-02-17T04:15:40.762Z,0
2023-02-17T04:16:21.202Z,0
2023-02-17T04:17:01.708Z,0
2023-02-17T04:17:42.220Z,0
2023-02-17T04:18:22.685Z,0
2023-02-17T04:19:03.203Z,0
2023-02-17T04:19:43.745Z,0
2023-02-17T04:20:24.248Z,0
2023-02-17T04:28:30.289Z,0
2023-02-17T04:29:10.792Z,0
2023-02-17T04:29:51.331Z,0
2023-02-17T04:30:31.913Z,0
2023-02-17T04:31:12.463Z,0
2023-02-17T04:31:52.983Z,0
2023-02-17T04:32:33.355Z,0
2023-02-17T04:33:13.850Z,0
2023-02-17T04:33:54.397Z,0
2023-02-17T04:34:34.897Z,0
2023-02-17T04:40:40.479Z,0
2023-02-17T04:41:20.968Z,0
2023-02-17T04:42:01.531Z,0
2023-02-17T04:42:42.026Z,0
2023-02-17T04:43:22.525Z,0
2023-02-17T04:44:03.022Z,0
2023-02-17T04:44:43.488Z,0
2023-02-17T04:45:23.978Z,0
2023-02-17T04:46:04.991Z,0
2023-02-17T04:46:44.960Z,0
2023-02-17T04:54:10.398Z,0
2023-02-17T04:54:50.876Z,0
2023-02-17T04:55:31.368Z,0
2023-02-17T04:56:11.897Z,0
2023-02-17T04:56:52.395Z,0
2023-02-17T04:57:32.943Z,0
2023-02-17T04:58:13.471Z,0
2023-02-17T04:58:53.988Z,0
2023-02-17T04:59:34.470Z,0
2023-02-17T05:00:14.953Z,0
2023-02-17T05:06:57.501Z,0
2023-02-17T05:07:37.999Z,0
2023-02-17T05:08:18.558Z,0
2023-02-17T05:13:02.143Z,0
2023-02-17T05:13:42.678Z,0
2023-02-17T05:14:23.178Z,0
2023-02-17T05:15:03.639Z,0
2023-02-17T05:15:44.189Z,0
2023-02-17T05:16:24.699Z,0
2023-02-17T05:17:05.208Z,0
2023-02-17T05:17:45.754Z,0
2023-02-17T05:18:26.315Z,0
2023-02-17T05:19:06.834Z,0
2023-02-17T05:25:52.163Z,0
2023-02-17T05:26:32.705Z,0
2023-02-17T05:27:13.234Z,0
2023-02-17T05:27:53.732Z,0
2023-02-17T05:28:34.291Z,0
2023-02-17T05:29:14.866Z,0
2023-02-17T05:29:55.382Z,0
2023-02-17T05:30:35.912Z,0
2023-02-17T05:31:57.017Z,0
2023-02-17T05:36:42.187Z,0
2023-02-17T05:37:22.701Z,0
2023-02-17T05:38:03.194Z,0
2023-02-17T05:38:43.685Z,0
2023-02-17T05:39:24.238Z,0
2023-02-17T05:40:04.770Z,0
2023-02-17T05:40:45.321Z,0
2023-02-17T05:41:25.818Z,0
2023-02-17T05:42:06.329Z,0
2023-02-17T05:42:46.818Z,0
2023-02-17T05:50:12.490Z,0
2023-02-17T05:50:52.969Z,0
2023-02-17T05:51:33.513Z,0
2023-02-17T05:52:14.026Z,0
2023-02-17T05:52:54.585Z,0
2023-02-17T06:31:15.391Z,0
2023-02-17T06:31:55.832Z,0
2023-02-17T06:32:36.251Z,0
2023-02-17T06:37:19.994Z,0
2023-02-17T06:38:05.342Z,0
2023-02-17T06:44:50.092Z,0
2023-02-17T06:45:30.707Z,0
2023-02-17T06:46:11.298Z,0
2023-02-17T06:46:51.735Z,0
2023-02-17T06:47:32.231Z,0
2023-02-17T06:48:12.793Z,0
2023-02-17T06:48:53.360Z,0
2023-02-17T06:49:33.879Z,0
2023-02-17T06:50:14.387Z,0
2023-02-17T06:57:40.214Z,0
2023-02-17T06:58:20.688Z,0
2023-02-17T06:59:01.189Z,0
2023-02-17T06:59:41.663Z,0
2023-02-17T07:00:22.280Z,0
2023-02-17T07:01:02.750Z,0
2023-02-17T07:01:43.243Z,0
2023-02-17T07:02:23.851Z,0
2023-02-17T07:03:04.373Z,0
2023-02-17T07:03:44.763Z,0
2023-02-17T07:10:30.584Z,0
2023-02-17T07:11:10.952Z,0
2023-02-17T07:11:51.444Z,0
2023-02-17T07:12:32.054Z,0
2023-02-17T07:13:12.601Z,0
2023-02-17T07:13:53.142Z,0
2023-02-17T07:18:35.999Z,0
2023-02-17T07:19:17.185Z,0
2023-02-17T07:19:58.249Z,0
2023-02-17T07:20:39.492Z,0
2023-02-17T07:21:20.434Z,0
2023-02-17T07:22:01.496Z,0
2023-02-17T07:22:42.472Z,0
2023-02-17T07:23:23.572Z,0
2023-02-17T07:26:09.175Z,0
2023-02-17T07:26:50.207Z,0
2023-02-17T07:27:31.196Z,0
2023-02-17T07:34:00.627Z,0
2023-02-17T07:34:41.225Z,0
2023-02-17T07:35:22.553Z,0
2023-02-17T07:38:45.329Z,0
2023-02-17T07:39:25.849Z,0
2023-02-17T07:40:06.441Z,0
2023-02-17T07:40:46.863Z,0
2023-02-17T07:41:27.320Z,0
2023-02-17T07:42:07.830Z,0
2023-02-17T07:42:48.441Z,0
2023-02-17T07:43:28.983Z,0
2023-02-17T07:44:09.550Z,0
2023-02-17T07:44:50.190Z,0
2023-02-17T07:52:10.041Z,0
2023-02-17T07:52:50.582Z,0
2023-02-17T07:53:31.124Z,0
2023-02-17T07:57:34.626Z,0
2023-02-17T07:58:15.245Z,0
2023-02-17T07:58:55.900Z,0
2023-02-17T07:59:36.502Z,0
2023-02-17T08:00:16.997Z,0
2023-02-17T08:00:57.506Z,0
2023-02-17T08:01:38.053Z,0
2023-02-17T08:02:18.685Z,0
2023-02-17T08:02:59.322Z,0
2023-02-17T08:08:24.909Z,0
2023-02-17T08:09:05.426Z,0
2023-02-17T08:09:45.979Z,0
2023-02-17T08:10:26.535Z,0
2023-02-17T08:11:07.429Z,5
2023-02-17T08:11:48.960Z,5
2023-02-17T08:12:28.200Z,5
2023-02-17T08:13:08.726Z,5
2023-02-17T08:13:49.324Z,5
2023-02-17T08:19:15.221Z,10
2023-02-17T08:19:55.821Z,10
2023-02-17T08:20:36.690Z,10
2023-02-17T08:21:17.046Z,10
2023-02-17T08:21:58.349Z,10
2023-02-17T08:22:38.857Z,10
2023-02-17T08:23:19.469Z,10
2023-02-17T08:30:05.000Z,10
2023-02-17T08:30:45.673Z,10
2023-02-17T08:31:26.309Z,10
2023-02-17T08:32:06.790Z,10
2023-02-17T08:36:14.828Z,10
2023-02-17T08:39:34.119Z,10
2023-02-17T08:40:14.847Z,15
2023-02-17T08:40:55.383Z,15
2023-02-17T08:44:58.755Z,15
2023-02-17T08:45:40.040Z,15
2023-02-17T08:46:21.184Z,15
2023-02-17T08:47:01.191Z,15
2023-02-17T08:47:41.789Z,15
2023-02-17T08:48:22.368Z,15
2023-02-17T08:49:02.924Z,15
2023-02-17T08:49:43.531Z,15
2023-02-17T08:55:49.928Z,15
2023-02-17T08:56:29.609Z,15
2023-02-17T08:57:10.224Z,15
2023-02-17T09:01:04.698Z,20
2023-02-17T09:01:45.345Z,20
2023-02-17T09:02:25.936Z,20
2023-02-17T09:03:06.563Z,20
2023-02-17T09:06:29.244Z,20
2023-02-17T09:07:09.729Z,20
2023-02-17T09:07:50.367Z,20
2023-02-17T09:08:31.482Z,20
2023-02-17T09:09:12.011Z,20
2023-02-17T09:09:52.542Z,20
2023-02-17T09:10:33.105Z,20
2023-02-17T09:11:13.624Z,20
2023-02-17T09:14:51.232Z,25
2023-02-17T09:15:31.841Z,25
2023-02-17T09:16:12.496Z,25
2023-02-17T09:16:54.521Z,25
2023-02-17T09:19:37.518Z,25
2023-02-17T09:23:17.007Z,25
2023-02-17T09:23:57.617Z,25
2023-02-17T09:24:38.153Z,25
2023-02-17T09:29:22.156Z,30
2023-02-17T09:30:02.913Z,30
2023-02-17T09:30:43.594Z,30
2023-02-17T09:31:24.129Z,30
2023-02-17T09:32:05.361Z,30
2023-02-17T09:32:46.715Z,30
2023-02-17T09:33:27.218Z,35
2023-02-17T09:38:52.716Z,35
2023-02-17T09:39:33.629Z,35
2023-02-17T09:40:14.086Z,35
2023-02-17T09:43:43.034Z,35
2023-02-17T09:44:23.570Z,35
2023-02-17T09:45:04.151Z,35
2023-02-17T09:49:48.087Z,35
2023-02-17T09:50:28.513Z,35
2023-02-17T09:51:10.564Z,35
2023-02-17T09:51:49.660Z,35
2023-02-17T09:52:30.203Z,35
2023-02-17T09:53:10.820Z,35
2023-02-17T09:53:51.345Z,35
2023-02-17T09:54:31.793Z,35
2023-02-17T09:55:12.342Z,35
2023-02-17T10:01:57.774Z,40
2023-02-17T10:02:38.308Z,40
2023-02-17T10:03:18.973Z,40
2023-02-17T10:03:59.460Z,40
2023-02-17T10:04:39.928Z,40
2023-02-17T10:05:20.617Z,40
2023-02-17T10:06:01.080Z,45
2023-02-17T10:06:41.564Z,45
2023-02-17T10:07:22.088Z,45
2023-02-17T10:08:02.751Z,45
2023-02-17T10:14:47.962Z,40
2023-02-17T10:15:28.498Z,40
2023-02-17T10:16:09.479Z,40
2023-02-17T10:16:49.609Z,40
2023-02-17T10:17:30.095Z,45
2023-02-17T10:18:10.614Z,45
2023-02-17T10:18:51.167Z,40
2023-02-17T10:19:31.644Z,40
2023-02-17T10:20:12.292Z,40
2023-02-17T10:26:17.635Z,40
2023-02-17T10:26:58.183Z,40
2023-02-17T10:27:38.799Z,40
2023-02-17T10:28:19.310Z,40
2023-02-17T10:28:59.838Z,40
2023-02-17T10:29:40.404Z,40
2023-02-17T10:30:20.966Z,40
2023-02-17T10:31:01.554Z,40
2023-02-17T10:31:42.181Z,40
2023-02-17T10:32:22.908Z,40
2023-02-17T10:38:27.693Z,40
2023-02-17T10:39:08.202Z,40
2023-02-17T10:39:48.785Z,45
2023-02-17T10:40:29.338Z,45
2023-02-17T10:41:09.913Z,45
2023-02-17T10:41:50.460Z,45
2023-02-17T10:42:30.960Z,45
2023-02-17T10:43:11.447Z,45
2023-02-17T10:43:51.981Z,45
2023-02-17T10:51:18.036Z,40
2023-02-17T10:51:58.524Z,40
2023-02-17T10:52:39.079Z,40
2023-02-17T10:53:19.585Z,40
2023-02-17T10:54:00.102Z,40
2023-02-17T10:54:40.623Z,40
2023-02-17T10:55:23.344Z,40
2023-02-17T10:56:01.655Z,40
2023-02-17T10:56:42.135Z,40
2023-02-17T11:04:08.050Z,35
2023-02-17T11:04:48.529Z,35
2023-02-17T11:05:29.113Z,35
2023-02-17T11:06:09.756Z,35
2023-02-17T11:06:50.123Z,35
2023-02-17T11:07:30.652Z,35
2023-02-17T11:08:11.159Z,35
2023-02-17T11:08:51.806Z,35
2023-02-17T11:09:32.264Z,35
2023-02-17T11:16:17.649Z,35
2023-02-17T11:16:58.182Z,35
2023-02-17T11:17:38.731Z,35
2023-02-17T11:18:19.261Z,30
2023-02-17T11:18:59.737Z,25
2023-02-17T11:19:40.365Z,25
2023-02-17T11:20:20.843Z,25
2023-02-17T11:21:01.441Z,25
2023-02-17T11:21:41.956Z,25
2023-02-17T11:22:22.493Z,25
2023-02-17T11:29:09.488Z,30
2023-02-17T11:29:50.027Z,35
2023-02-17T11:30:30.619Z,30
2023-02-17T11:31:11.180Z,30
2023-02-17T11:31:51.664Z,30
2023-02-17T11:32:32.151Z,30
2023-02-17T11:39:18.529Z,25
2023-02-17T11:39:59.062Z,25
2023-02-17T11:40:39.605Z,20
2023-02-17T11:41:20.190Z,20
2023-02-17T11:42:00.677Z,20
2023-02-17T11:42:41.197Z,20
2023-02-17T11:43:21.693Z,25
2023-02-17T11:47:26.119Z,35
2023-02-17T11:48:06.707Z,35
2023-02-17T11:48:47.235Z,40
2023-02-17T11:51:30.316Z,35
2023-02-17T11:52:11.118Z,40
2023-02-17T11:52:51.616Z,40
2023-02-17T11:53:32.196Z,40
2023-02-17T12:32:47.120Z,35
2023-02-17T12:33:27.382Z,30
2023-02-17T12:34:07.903Z,35
2023-02-17T12:38:22.701Z,30
2023-02-17T12:39:03.249Z,30
2023-02-17T12:39:43.732Z,30
2023-02-17T12:43:07.203Z,40
2023-02-17T12:43:49.273Z,35
2023-02-17T12:44:28.745Z,30
2023-02-17T12:45:09.105Z,40
2023-02-17T12:45:49.923Z,35
2023-02-17T12:47:10.880Z,40
2023-02-17T12:47:51.616Z,30
2023-02-17T12:51:17.090Z,40
2023-02-17T12:51:57.648Z,35
2023-02-17T12:52:39.265Z,35
2023-02-17T12:53:21.679Z,30
2023-02-17T12:59:38.135Z,35
2023-02-17T13:00:18.790Z,40
2023-02-17T13:00:59.740Z,35
2023-02-17T13:02:21.439Z,40
2023-02-17T13:03:02.011Z,40
2023-02-17T13:03:42.536Z,35
2023-02-17T13:05:03.794Z,35
2023-02-17T13:05:44.291Z,30
2023-02-17T13:06:24.929Z,35
2023-02-17T13:07:05.406Z,35
2023-02-17T13:07:45.904Z,30
2023-02-17T13:16:50.762Z,20
2023-02-17T13:17:31.207Z,20
2023-02-17T13:18:11.749Z,20
2023-02-17T13:22:26.955Z,25
2023-02-17T13:23:07.963Z,25
2023-02-17T13:23:48.438Z,20
2023-02-17T13:27:51.868Z,25
2023-02-17T13:28:32.445Z,25
2023-02-17T13:29:12.840Z,25
2023-02-17T13:29:55.279Z,25
2023-02-17T13:30:35.872Z,20
2023-02-17T13:31:16.501Z,20
2023-02-17T13:35:21.485Z,25
2023-02-17T13:36:01.956Z,30
2023-02-17T13:36:42.515Z,25
2023-02-17T13:37:23.145Z,25
2023-02-17T13:38:04.628Z,25
2023-02-17T13:38:45.130Z,25
2023-02-17T13:39:25.611Z,20
2023-02-17T13:40:06.203Z,25
2023-02-17T13:45:31.638Z,20
2023-02-17T13:46:12.166Z,20
2023-02-17T13:46:52.734Z,20
2023-02-17T13:47:33.548Z,20
2023-02-17T13:48:13.784Z,20
2023-02-17T13:48:54.302Z,20
2023-02-17T13:49:34.796Z,20
2023-02-17T13:50:15.345Z,20
2023-02-17T13:51:36.724Z,20
2023-02-17T13:58:21.989Z,20
2023-02-17T13:59:02.507Z,15
2023-02-17T13:59:43.265Z,20
2023-02-17T14:00:23.812Z,20
2023-02-17T14:01:04.362Z,20
2023-02-17T14:01:44.846Z,20
2023-02-17T14:05:51.780Z,15
2023-02-17T14:06:33.024Z,15
2023-02-17T14:07:13.544Z,20
2023-02-17T14:07:54.064Z,20
2023-02-17T14:08:35.562Z,20
2023-02-17T14:09:16.060Z,15
2023-02-17T14:16:01.980Z,10
2023-02-17T14:16:42.385Z,10
2023-02-17T14:17:23.095Z,10
2023-02-17T14:18:04.481Z,15
2023-02-17T14:18:45.697Z,10
2023-02-17T14:19:26.312Z,15
2023-02-17T14:25:31.548Z,15
2023-02-17T14:26:12.117Z,15
2023-02-17T14:26:52.623Z,15
2023-02-17T14:27:33.173Z,20
2023-02-17T14:28:13.765Z,20
2023-02-17T14:28:54.334Z,20
2023-02-17T14:29:34.845Z,20
2023-02-17T14:30:16.034Z,20
2023-02-17T14:36:22.701Z,25
2023-02-17T14:37:03.185Z,25
2023-02-17T14:37:44.750Z,30
2023-02-17T14:38:26.037Z,30
2023-02-17T14:44:31.944Z,25
2023-02-17T14:45:12.469Z,25
2023-02-17T14:45:53.036Z,30
2023-02-17T14:46:33.616Z,25
2023-02-17T14:48:53.653Z,20
2023-02-17T14:49:34.135Z,20
2023-02-17T14:50:14.626Z,20
2023-02-17T14:54:58.274Z,10
2023-02-17T14:55:38.772Z,10
2023-02-17T14:56:19.323Z,5
2023-02-17T14:56:59.842Z,5
2023-02-17T14:57:40.328Z,5
2023-02-17T14:58:20.849Z,5
2023-02-17T14:59:01.316Z,5
2023-02-17T14:59:41.799Z,5
2023-02-17T15:00:22.317Z,5
2023-02-17T15:01:02.787Z,5
2023-02-17T15:01:43.313Z,5
2023-02-17T15:08:28.328Z,0
2023-02-17T15:09:08.910Z,0
2023-02-17T15:09:49.433Z,0
2023-02-17T15:10:29.925Z,0
2023-02-17T15:11:10.368Z,0
2023-02-17T15:12:31.334Z,0
2023-02-17T15:13:11.841Z,0
2023-02-17T15:13:52.356Z,0
2023-02-17T15:14:32.862Z,0
2023-02-17T15:21:58.369Z,0
2023-02-17T15:22:38.870Z,0
2023-02-17T15:23:19.505Z,0
2023-02-17T15:24:00.016Z,0
2023-02-17T15:24:40.563Z,0
2023-02-17T15:25:21.077Z,0
2023-02-17T15:26:01.628Z,0
2023-02-17T15:26:42.086Z,0
2023-02-17T15:27:22.620Z,0
2023-02-17T15:28:03.202Z,0
2023-02-17T15:34:48.314Z,0
2023-02-17T15:35:28.828Z,0
2023-02-17T15:36:09.451Z,0
2023-02-17T15:36:49.842Z,0
2023-02-17T15:37:30.348Z,0
2023-02-17T15:38:10.863Z,0
2023-02-17T15:38:51.383Z,0
2023-02-17T15:39:31.906Z,0
2023-02-17T15:40:12.492Z,0
2023-02-17T15:40:52.990Z,0
2023-02-17T15:47:38.446Z,0
2023-02-17T15:48:18.877Z,0
2023-02-17T15:48:59.399Z,0
2023-02-17T15:49:39.888Z,0
2023-02-17T15:50:20.586Z,0
2023-02-17T15:51:00.858Z,0
2023-02-17T15:51:41.552Z,0
2023-02-17T15:53:02.468Z,0
2023-02-17T15:53:42.954Z,0
2023-02-17T16:01:08.662Z,0
2023-02-17T16:01:49.162Z,0
2023-02-17T16:02:29.688Z,0
2023-02-17T16:03:10.189Z,0
2023-02-17T16:03:50.665Z,0
2023-02-17T16:04:31.164Z,0
2023-02-17T16:05:11.647Z,0
2023-02-17T16:05:52.151Z,0
2023-02-17T16:06:32.646Z,0
2023-02-17T16:07:13.144Z,0
2023-02-17T16:13:58.201Z,0
2023-02-17T16:14:38.732Z,0
2023-02-17T16:15:19.208Z,0
2023-02-17T16:15:59.757Z,0
2023-02-17T16:16:40.254Z,0
2023-02-17T16:17:20.709Z,0
2023-02-17T16:18:01.197Z,0
2023-02-17T16:18:41.736Z,0
2023-02-17T16:19:22.274Z,0
2023-02-17T16:20:02.835Z,0
2023-02-17T16:26:08.752Z,0
2023-02-17T16:26:49.031Z,0
2023-02-17T16:28:10.002Z,0
2023-02-17T16:28:50.553Z,0
2023-02-17T16:29:31.035Z,0
2023-02-17T16:30:11.608Z,0
2023-02-17T16:30:52.034Z,0
2023-02-17T16:31:32.721Z,0
2023-02-17T16:32:13.199Z,0
2023-02-17T16:42:11.821Z,0
2023-02-17T16:42:52.319Z,0
2023-02-17T16:43:32.781Z,0
2023-02-17T16:48:56.748Z,0
2023-02-17T16:49:37.237Z,0
2023-02-17T16:50:17.751Z,0
2023-02-17T16:50:58.251Z,0
2023-02-17T16:51:38.728Z,0
2023-02-17T16:52:19.255Z,0
2023-02-17T16:52:59.753Z,0
2023-02-17T16:53:40.303Z,0
2023-02-17T16:54:20.782Z,0
2023-02-17T17:02:26.895Z,0
2023-02-17T17:03:07.459Z,0
2023-02-17T17:03:47.924Z,0
2023-02-17T17:04:28.405Z,0
2023-02-17T17:05:08.860Z,0
2023-02-17T17:05:49.392Z,0
2023-02-17T17:06:29.877Z,0
2023-02-17T17:07:10.365Z,0
2023-02-17T17:07:50.903Z,0
2023-02-17T17:08:31.417Z,0
2023-02-17T17:15:16.428Z,0
2023-02-17T17:15:56.815Z,0
2023-02-17T17:16:37.346Z,0
2023-02-17T17:17:17.792Z,0
2023-02-17T17:17:58.310Z,0
2023-02-17T17:18:38.822Z,0
2023-02-17T17:19:19.405Z,0
2023-02-17T17:19:59.872Z,0
2023-02-17T17:20:41.779Z,0
2023-02-17T17:21:20.821Z,0
2023-02-17T17:22:01.317Z,0
2023-02-17T17:31:19.729Z,0
2023-02-17T17:32:00.353Z,0
2023-02-17T17:32:40.638Z,0
2023-02-17T17:37:24.290Z,0
2023-02-17T17:38:04.763Z,0
2023-02-17T17:38:45.256Z,0
2023-02-17T17:39:25.759Z,0
2023-02-17T17:40:06.284Z,0
2023-02-17T17:40:46.740Z,0
2023-02-17T17:41:27.245Z,0
2023-02-17T17:42:07.793Z,0
2023-02-17T17:42:48.328Z,0
2023-02-17T17:43:28.822Z,0
2023-02-17T17:50:54.477Z,0
2023-02-17T17:51:34.950Z,0
2023-02-17T17:52:15.478Z,0
2023-02-17T17:52:55.930Z,0
2023-02-17T18:34:14.860Z,0
2023-02-17T18:34:55.252Z,0
2023-02-17T18:35:35.764Z,0
2023-02-17T18:40:19.381Z,0
2023-02-17T18:40:59.877Z,0
2023-02-17T18:41:40.348Z,0
2023-02-17T18:42:20.872Z,0
2023-02-17T18:43:01.375Z,0
2023-02-17T18:43:41.860Z,0
2023-02-17T18:44:22.392Z,0
2023-02-17T18:45:02.876Z,0
2023-02-17T18:45:43.379Z,0
2023-02-17T18:46:25.904Z,0
2023-02-17T18:53:49.757Z,0
2023-02-17T18:54:30.357Z,0
2023-02-17T18:55:10.840Z,0
2023-02-17T18:55:51.349Z,0
2023-02-17T18:56:31.880Z,0
2023-02-17T18:57:12.345Z,0
2023-02-17T18:57:52.857Z,0
2023-02-17T18:58:33.491Z,0
2023-02-17T18:59:14.021Z,0
2023-02-17T19:06:39.773Z,0
2023-02-17T19:07:20.277Z,0
2023-02-17T19:08:41.297Z,0
2023-02-17T19:09:21.731Z,0
2023-02-17T19:10:02.250Z,0
2023-02-17T19:10:42.772Z,0
2023-02-17T19:11:23.313Z,0
2023-02-17T19:12:03.827Z,0
2023-02-17T19:12:44.373Z,0
2023-02-17T19:18:49.714Z,0
2023-02-17T19:19:30.250Z,0
2023-02-17T19:20:10.722Z,0
2023-02-17T19:20:51.259Z,0
2023-02-17T19:26:59.491Z,0
2023-02-17T19:27:40.014Z,0
2023-02-17T19:28:20.568Z,0
2023-02-17T19:29:01.049Z,0
2023-02-17T19:29:41.513Z,0
2023-02-17T19:30:22.087Z,0
2023-02-17T19:34:40.540Z,0
2023-02-17T19:35:21.069Z,0
2023-02-17T19:36:01.583Z,0
2023-02-17T19:40:04.751Z,0
2023-02-17T19:40:45.969Z,0
2023-02-17T19:41:26.594Z,0
2023-02-17T19:42:07.028Z,0
2023-02-17T19:42:47.507Z,0
2023-02-17T19:43:28.073Z,0
2023-02-17T19:44:08.809Z,0
2023-02-17T19:44:49.382Z,0
2023-02-17T19:49:27.225Z,0
2023-02-17T19:50:08.052Z,0
2023-02-17T19:50:48.449Z,0
2023-02-17T19:52:51.094Z,0
2023-02-17T19:53:32.124Z,0
2023-02-17T19:54:12.141Z,0
2023-02-17T19:59:24.969Z,0
2023-02-17T20:00:05.473Z,0
2023-02-17T20:00:45.855Z,0
2023-02-17T20:03:29.165Z,0
2023-02-17T20:04:09.846Z,0
2023-02-17T20:04:50.857Z,0
2023-02-17T20:05:31.332Z,0
2023-02-17T20:06:14.148Z,0
2023-02-17T20:13:00.160Z,0
2023-02-17T20:13:45.900Z,0
2023-02-17T20:14:22.429Z,0
2023-02-17T20:15:03.202Z,0
2023-02-17T20:21:09.040Z,0
2023-02-17T20:21:49.547Z,0
2023-02-17T20:22:30.088Z,0
2023-02-17T20:23:51.056Z,0
2023-02-17T20:24:31.602Z,0
2023-02-17T20:25:12.255Z,0
2023-02-17T20:25:52.876Z,0
2023-02-17T20:26:33.326Z,0
2023-02-17T20:33:18.974Z,0
2023-02-17T20:33:59.455Z,0
2023-02-17T20:34:39.985Z,0
2023-02-17T20:35:20.466Z,0
2023-02-17T20:36:01.734Z,0
2023-02-17T20:36:41.752Z,0
2023-02-17T20:37:22.333Z,0
2023-02-17T20:38:02.962Z,0
2023-02-17T20:38:43.215Z,0
2023-02-17T20:39:23.734Z,0
2023-02-17T20:45:29.112Z,0
2023-02-17T20:46:09.982Z,0
2023-02-17T20:46:50.429Z,0
2023-02-17T20:47:30.786Z,0
2023-02-17T20:48:51.979Z,0
2023-02-17T20:49:32.474Z,0
2023-02-17T20:50:13.022Z,0
2023-02-17T20:50:53.596Z,0
2023-02-17T20:57:38.758Z,0
2023-02-17T20:58:19.244Z,0
2023-02-17T20:58:59.728Z,0
2023-02-17T20:59:40.245Z,0
2023-02-17T21:00:20.731Z,0
2023-02-17T21:01:01.279Z,0
2023-02-17T21:01:41.707Z,0
2023-02-17T21:02:22.180Z,0
2023-02-17T21:03:02.805Z,0
2023-02-17T21:03:43.292Z,0
2023-02-17T21:04:23.794Z,0
2023-02-17T21:11:08.912Z,0
2023-02-17T21:11:49.415Z,0
2023-02-17T21:12:29.910Z,0
2023-02-17T21:13:10.405Z,0
2023-02-17T21:13:50.878Z,0
2023-02-17T21:14:31.523Z,0
2023-02-17T21:15:13.176Z,0
2023-02-17T21:21:41.031Z,0
2023-02-17T21:22:21.531Z,0
2023-02-17T21:23:02.208Z,0
2023-02-17T21:27:46.037Z,0
2023-02-17T21:28:26.493Z,0
2023-02-17T21:29:07.130Z,0
2023-02-17T21:29:47.561Z,0
2023-02-17T21:30:28.145Z,0
2023-02-17T21:31:09.383Z,0
2023-02-17T21:31:49.588Z,0
2023-02-17T21:32:30.413Z,0
2023-02-17T21:37:55.625Z,0
2023-02-17T21:38:35.710Z,0
2023-02-17T21:39:16.335Z,0
2023-02-17T21:39:56.915Z,0
2023-02-17T21:40:37.433Z,0
2023-02-17T21:41:18.833Z,0
2023-02-17T21:41:59.964Z,0
2023-02-17T21:42:40.902Z,0
2023-02-17T21:48:05.890Z,0
2023-02-17T21:48:46.360Z,0
2023-02-17T21:49:26.882Z,0
2023-02-17T21:50:07.964Z,0
2023-02-17T21:50:48.395Z,0
2023-02-17T21:51:28.909Z,0
2023-02-17T21:52:09.391Z,0
2023-02-17T21:52:50.637Z,0
2023-02-17T21:58:15.661Z,0
2023-02-17T21:58:56.191Z,0
2023-02-17T21:59:36.736Z,0
2023-02-17T22:00:17.214Z,0
2023-02-17T22:00:57.796Z,0
2023-02-17T22:01:38.264Z,0
2023-02-17T22:02:18.846Z,0
2023-02-17T22:02:59.280Z,0
2023-02-17T22:03:39.966Z,0
2023-02-17T22:04:20.712Z,0
2023-02-17T22:10:25.821Z,0
2023-02-17T22:11:06.298Z,0
2023-02-17T22:11:46.793Z,0
2023-02-17T22:12:27.317Z,0
2023-02-17T22:13:08.529Z,0
2023-02-17T22:13:48.992Z,0
2023-02-17T22:14:29.480Z,0
2023-02-17T22:15:10.547Z,0
2023-02-17T22:22:36.006Z,0
2023-02-17T22:23:16.516Z,0
2023-02-17T22:23:57.061Z,0
2023-02-17T22:24:37.576Z,0
2023-02-17T22:25:18.079Z,0
2023-02-17T22:25:58.570Z,0
2023-02-17T22:26:39.113Z,0
2023-02-17T22:27:19.631Z,0
2023-02-17T22:28:00.128Z,0
2023-02-17T22:28:40.639Z,0
2023-02-17T22:35:25.829Z,0
2023-02-17T22:36:06.641Z,0
2023-02-17T22:36:46.802Z,0
2023-02-17T22:37:27.377Z,0
2023-02-17T22:38:08.115Z,0
2023-02-17T22:38:48.581Z,0
2023-02-17T22:39:29.068Z,0
2023-02-17T22:40:09.569Z,0
2023-02-17T22:40:50.058Z,0
2023-02-17T22:41:30.603Z,0
2023-02-17T22:48:15.707Z,0
2023-02-17T22:48:56.243Z,0
2023-02-17T22:49:36.725Z,0
2023-02-17T22:50:17.206Z,0
2023-02-17T22:50:57.751Z,0
2023-02-17T22:51:38.244Z,0
2023-02-17T22:52:18.744Z,0
2023-02-17T22:52:59.234Z,0
2023-02-17T22:53:39.736Z,0
2023-02-17T23:01:45.857Z,0
2023-02-17T23:02:26.320Z,0